createdAt,value
2022-12-19T00:01:27.635Z,46.75
2022-12-19T00:03:57.583Z,43.53
2022-12-19T00:06:25.036Z,50.88
2022-12-19T00:08:52.363Z,45.15
2022-12-19T00:11:20.175Z,54.38
2022-12-19T00:13:47.342Z,47.47
2022-12-19T00:16:17.644Z,48.95
2022-12-19T00:18:46.373Z,46.60
2022-12-19T00:21:17.345Z,48.05
2022-12-19T00:23:44.248Z,48.05
2022-12-19T00:26:18.962Z,49.92
2022-12-19T00:28:47.644Z,56.13
2022-12-19T00:31:15.828Z,51.72
2022-12-19T00:33:43.598Z,52.10
2022-12-19T00:36:22.925Z,49.30
2022-12-19T00:38:51.370Z,49.95
2022-12-19T00:41:28.963Z,44.45
2022-12-19T00:43:59.525Z,45.33
2022-12-19T00:46:26.627Z,44.38
2022-12-19T00:48:55.986Z,44.78
2022-12-19T00:51:24.285Z,51.67
2022-12-19T00:53:51.303Z,50.50
2022-12-19T00:56:20.903Z,52.53
2022-12-19T00:58:47.902Z,46.45
2022-12-19T01:01:19.802Z,53.03
2022-12-19T01:04:18.585Z,50.55
2022-12-19T01:06:33.603Z,43.78
2022-12-19T01:09:01.103Z,51.53
2022-12-19T01:11:46.545Z,50.80
2022-12-19T01:14:19.066Z,47.17
2022-12-19T01:16:47.871Z,49.00
2022-12-19T01:19:14.766Z,53.63
2022-12-19T01:21:41.884Z,50.78
2022-12-19T01:24:09.704Z,45.13
2022-12-19T01:26:36.467Z,50.78
2022-12-19T01:29:03.247Z,48.85
2022-12-19T01:31:30.019Z,41.75
2022-12-19T01:33:56.790Z,47.55
2022-12-19T01:36:23.563Z,47.22
2022-12-19T01:38:50.545Z,44.10
2022-12-19T01:41:17.325Z,46.05
2022-12-19T01:44:04.383Z,46.90
2022-12-19T01:46:33.772Z,45.15
2022-12-19T01:49:00.867Z,46.47
2022-12-19T01:51:35.772Z,47.90
2022-12-19T01:54:04.631Z,51.55
2022-12-19T01:56:40.573Z,41.58
2022-12-19T01:59:10.498Z,57.00
2022-12-19T02:01:45.820Z,50.08
2022-12-19T02:04:18.873Z,48.25
2022-12-19T02:06:45.672Z,43.53
2022-12-19T02:09:12.493Z,51.25
2022-12-19T02:11:39.295Z,54.28
2022-12-19T02:14:06.140Z,52.65
2022-12-19T02:16:46.934Z,51.42
2022-12-19T02:19:46.095Z,51.22
2022-12-19T02:22:36.838Z,52.67
2022-12-19T02:25:14.461Z,55.15
2022-12-19T02:28:05.884Z,49.17
2022-12-19T02:31:17.863Z,49.10
2022-12-19T02:34:08.916Z,41.42
2022-12-19T02:36:41.954Z,50.95
2022-12-19T02:39:36.712Z,52.30
2022-12-19T02:42:03.851Z,56.55
2022-12-19T02:44:39.212Z,45.65
2022-12-19T02:47:06.473Z,54.85
2022-12-19T02:49:34.679Z,37.47
2022-12-19T02:52:19.945Z,57.83
2022-12-19T02:54:56.517Z,58.10
2022-12-19T02:57:30.255Z,50.15
2022-12-19T03:00:09.201Z,53.65
2022-12-19T03:03:00.568Z,48.42
2022-12-19T03:05:32.474Z,48.70
2022-12-19T03:08:09.145Z,45.88
2022-12-19T03:10:49.984Z,53.42
2022-12-19T03:13:55.529Z,49.58
2022-12-19T03:16:22.330Z,52.50
2022-12-19T03:18:49.087Z,41.47
2022-12-19T03:21:18.267Z,48.80
2022-12-19T03:23:45.250Z,52.17
2022-12-19T03:26:17.169Z,49.05
2022-12-19T03:29:07.917Z,47.25
2022-12-19T03:31:34.789Z,42.25
2022-12-19T03:34:22.749Z,45.45
2022-12-19T03:36:52.571Z,39.00
2022-12-19T03:39:19.397Z,43.65
2022-12-19T03:42:04.522Z,46.08
2022-12-19T03:44:33.734Z,42.08
2022-12-19T03:47:17.896Z,43.28
2022-12-19T03:49:45.477Z,47.53
2022-12-19T03:52:36.952Z,41.75
2022-12-19T03:55:04.042Z,36.22
2022-12-19T03:57:39.098Z,40.97
2022-12-19T04:00:14.102Z,48.65
2022-12-19T04:02:43.234Z,35.78
2022-12-19T04:05:12.303Z,44.58
2022-12-19T04:07:39.220Z,41.40
2022-12-19T04:10:07.917Z,49.17
2022-12-19T04:12:37.578Z,42.33
2022-12-19T04:15:05.107Z,43.85
2022-12-19T04:17:44.520Z,42.33
2022-12-19T04:20:12.239Z,39.50
2022-12-19T04:22:40.720Z,37.97
2022-12-19T04:25:10.438Z,40.50
2022-12-19T04:27:38.240Z,41.35
2022-12-19T04:30:08.600Z,32.28
2022-12-19T04:32:35.925Z,39.47
2022-12-19T04:35:03.020Z,34.65
2022-12-19T04:37:29.900Z,38.90
2022-12-19T04:39:56.682Z,39.00
2022-12-19T04:42:23.501Z,36.03
2022-12-19T04:44:50.255Z,34.58
2022-12-19T04:47:17.085Z,35.33
2022-12-19T04:49:43.878Z,31.30
2022-12-19T04:52:10.658Z,37.53
2022-12-19T04:54:38.196Z,37.70
2022-12-19T04:57:04.983Z,39.78
2022-12-19T04:59:31.764Z,35.58
2022-12-19T05:01:58.765Z,37.20
2022-12-19T05:04:26.558Z,40.47
2022-12-19T05:06:53.960Z,31.60
2022-12-19T05:09:20.760Z,38.30
2022-12-19T05:11:47.578Z,38.72
2022-12-19T05:14:15.722Z,36.67
2022-12-19T05:16:42.565Z,39.53
2022-12-19T05:19:09.358Z,38.88
2022-12-19T05:21:36.142Z,38.40
2022-12-19T05:24:03.135Z,32.05
2022-12-19T05:26:29.904Z,32.55
2022-12-19T05:28:56.697Z,36.17
2022-12-19T05:31:23.499Z,42.00
2022-12-19T05:33:50.327Z,40.05
2022-12-19T05:36:17.737Z,38.03
2022-12-19T05:38:44.571Z,40.90
2022-12-19T05:41:16.194Z,46.17
2022-12-19T05:43:43.981Z,38.05
2022-12-19T05:46:10.933Z,40.70
2022-12-19T05:48:37.864Z,44.47
2022-12-19T05:51:04.961Z,47.00
2022-12-19T05:53:31.772Z,42.00
2022-12-19T05:56:09.014Z,43.22
2022-12-19T05:58:36.097Z,40.45
2022-12-19T06:01:04.598Z,35.58
2022-12-19T06:03:31.480Z,48.53
2022-12-19T06:05:58.331Z,42.30
2022-12-19T06:08:25.276Z,40.45
2022-12-19T06:10:52.374Z,45.03
2022-12-19T06:13:24.808Z,46.38
2022-12-19T06:15:57.604Z,44.90
2022-12-19T06:18:24.672Z,39.45
2022-12-19T06:21:05.831Z,44.78
2022-12-19T06:23:33.893Z,37.33
2022-12-19T06:26:01.036Z,45.33
2022-12-19T06:28:28.176Z,34.50
2022-12-19T06:30:58.636Z,43.92
2022-12-19T06:33:26.688Z,39.17
2022-12-19T06:36:00.798Z,36.95
2022-12-19T06:38:28.088Z,41.25
2022-12-19T06:41:13.546Z,43.55
2022-12-19T06:43:40.508Z,37.08
2022-12-19T06:46:07.415Z,33.67
2022-12-19T06:48:34.348Z,36.92
2022-12-19T06:51:01.198Z,38.83
2022-12-19T06:53:28.105Z,42.33
2022-12-19T06:55:56.386Z,38.92
2022-12-19T06:58:24.444Z,39.45
2022-12-19T07:00:51.777Z,40.22
2022-12-19T07:03:23.203Z,34.20
2022-12-19T07:05:50.004Z,37.55
2022-12-19T07:08:16.938Z,32.35
2022-12-19T07:10:43.758Z,35.00
2022-12-19T07:13:10.545Z,37.00
2022-12-19T07:15:37.930Z,33.25
2022-12-19T07:18:05.190Z,38.28
2022-12-19T07:20:32.104Z,45.95
2022-12-19T07:22:58.868Z,32.53
2022-12-19T07:25:25.624Z,33.05
2022-12-19T07:27:52.447Z,38.67
2022-12-19T07:30:19.395Z,42.85
2022-12-19T07:32:46.187Z,34.22
2022-12-19T07:35:12.992Z,33.08
2022-12-19T07:37:40.333Z,35.33
2022-12-19T07:40:07.724Z,43.10
2022-12-19T07:42:35.267Z,35.55
2022-12-19T07:45:02.079Z,37.88
2022-12-19T07:47:28.862Z,36.03
2022-12-19T07:49:55.645Z,40.65
2022-12-19T07:52:22.436Z,33.17
2022-12-19T07:54:49.205Z,31.33
2022-12-19T07:57:16.144Z,33.95
2022-12-19T07:59:42.911Z,37.20
2022-12-19T08:02:10.247Z,40.90
2022-12-19T08:04:37.337Z,31.52
2022-12-19T08:07:04.484Z,42.30
2022-12-19T08:09:31.345Z,34.97
2022-12-19T08:11:58.943Z,34.95
2022-12-19T08:14:25.836Z,35.22
2022-12-19T08:17:20.916Z,37.45
2022-12-19T08:19:39.370Z,47.30
2022-12-19T08:22:06.155Z,32.42
2022-12-19T08:24:33.328Z,34.83
2022-12-19T08:27:00.098Z,39.47
2022-12-19T08:29:26.865Z,37.08
2022-12-19T08:31:53.653Z,36.40
2022-12-19T08:34:20.441Z,36.45
2022-12-19T08:36:47.305Z,41.58
2022-12-19T08:39:14.214Z,38.33
2022-12-19T08:41:40.996Z,31.67
2022-12-19T08:44:10.878Z,39.92
2022-12-19T08:46:37.856Z,35.80
2022-12-19T08:49:04.825Z,39.13
2022-12-19T08:51:31.644Z,42.28
2022-12-19T08:53:59.090Z,39.65
2022-12-19T08:56:25.928Z,35.35
2022-12-19T08:58:52.728Z,40.75
2022-12-19T09:01:20.447Z,39.63
2022-12-19T09:05:21.464Z,38.20
2022-12-19T09:06:34.923Z,36.58
2022-12-19T09:09:02.645Z,42.22
2022-12-19T09:11:29.467Z,38.35
2022-12-19T09:13:56.887Z,35.72
2022-12-19T09:16:24.934Z,34.83
2022-12-19T09:18:53.121Z,38.80
2022-12-19T09:21:22.967Z,38.80
2022-12-19T09:23:54.111Z,35.28
2022-12-19T09:26:21.898Z,32.38
2022-12-19T09:28:50.030Z,37.33
2022-12-19T09:31:19.423Z,36.00
2022-12-19T09:33:46.825Z,36.50
2022-12-19T09:36:15.630Z,36.28
2022-12-19T09:38:42.550Z,37.05
2022-12-19T09:41:29.176Z,34.28
2022-12-19T09:44:33.510Z,38.38
2022-12-19T09:47:26.849Z,34.53
2022-12-19T09:49:54.544Z,31.33
2022-12-19T09:52:33.141Z,31.67
2022-12-19T09:55:24.772Z,34.38
2022-12-19T09:57:55.947Z,38.63
2022-12-19T10:00:22.871Z,37.25
2022-12-19T10:03:10.215Z,33.05
2022-12-19T10:06:33.632Z,31.60
2022-12-19T10:08:33.302Z,34.00
2022-12-19T10:12:40.989Z,34.47
2022-12-19T10:14:21.250Z,29.48
2022-12-19T10:20:13.128Z,32.90
2022-12-19T10:22:50.823Z,36.65
2022-12-19T10:25:26.748Z,32.38
2022-12-19T10:28:00.562Z,39.30
2022-12-19T10:30:31.696Z,32.53
2022-12-19T10:33:21.250Z,34.97
2022-12-19T10:35:52.030Z,34.38
2022-12-19T10:38:45.326Z,41.95
2022-12-19T10:41:23.232Z,36.33
2022-12-19T10:44:02.609Z,34.70
2022-12-19T10:46:49.538Z,35.75
2022-12-19T10:49:23.692Z,32.50
2022-12-19T10:51:56.607Z,38.22
2022-12-19T10:54:33.085Z,31.88
2022-12-19T10:57:23.107Z,32.42
2022-12-19T11:00:04.251Z,33.60
2022-12-19T11:02:40.339Z,35.92
2022-12-19T11:05:46.247Z,34.17
2022-12-19T11:08:24.302Z,35.47
2022-12-19T11:12:39.650Z,33.28
2022-12-19T11:20:06.049Z,35.58
2022-12-19T11:21:36.372Z,36.42
2022-12-19T11:29:31.090Z,33.30
2022-12-19T11:29:41.965Z,37.00
2022-12-19T11:30:36.288Z,31.92
2022-12-19T11:30:38.739Z,31.70
2022-12-19T11:34:06.832Z,34.55
2022-12-19T11:36:50.021Z,27.88
2022-12-19T11:39:32.977Z,37.63
2022-12-19T11:42:12.431Z,32.50
2022-12-19T11:45:12.481Z,36.95
2022-12-19T11:48:16.798Z,38.80
2022-12-19T11:51:06.043Z,32.80
2022-12-19T11:54:05.081Z,32.35
2022-12-19T11:56:31.906Z,35.47
2022-12-19T11:59:04.977Z,36.15
2022-12-19T12:01:58.570Z,38.70
2022-12-19T12:04:46.967Z,34.25
2022-12-19T12:08:48.596Z,35.28
2022-12-19T12:12:47.465Z,32.08
2022-12-19T12:20:21.907Z,39.55
2022-12-19T12:30:53.673Z,35.95
2022-12-19T12:31:07.592Z,32.47
2022-12-19T12:31:23.832Z,35.88
2022-12-19T12:31:46.588Z,33.88
2022-12-19T12:31:47.726Z,33.65
2022-12-19T12:35:47.068Z,37.83
2022-12-19T12:37:08.259Z,34.78
2022-12-19T12:38:25.129Z,33.58
2022-12-19T12:41:15.044Z,35.60
2022-12-19T12:44:08.973Z,35.63
2022-12-19T12:46:40.185Z,37.83
2022-12-19T12:49:33.125Z,43.38
2022-12-19T12:52:00.098Z,33.35
2022-12-19T12:54:31.339Z,37.38
2022-12-19T12:56:58.414Z,33.97
2022-12-19T12:59:29.496Z,37.35
2022-12-19T13:01:59.875Z,37.65
2022-12-19T13:04:28.555Z,34.72
2022-12-19T13:07:27.928Z,42.80
2022-12-19T13:10:25.556Z,38.15
2022-12-19T13:13:21.140Z,38.00
2022-12-19T13:15:51.106Z,36.50
2022-12-19T13:18:39.392Z,34.35
2022-12-19T13:21:07.608Z,31.05
2022-12-19T13:23:37.060Z,40.65
2022-12-19T13:26:04.480Z,41.20
2022-12-19T13:28:31.243Z,40.00
2022-12-19T13:31:19.174Z,42.88
2022-12-19T13:34:14.865Z,38.53
2022-12-19T13:39:51.352Z,37.83
2022-12-19T13:40:12.263Z,37.35
2022-12-19T13:43:10.816Z,40.53
2022-12-19T13:45:38.755Z,39.17
2022-12-19T13:48:13.034Z,41.63
2022-12-19T13:50:40.433Z,43.95
2022-12-19T13:53:18.371Z,43.38
2022-12-19T13:55:45.212Z,41.40
2022-12-19T13:58:32.803Z,44.95
2022-12-19T14:01:20.742Z,39.42
2022-12-19T14:03:48.530Z,43.13
2022-12-19T14:06:26.393Z,39.63
2022-12-19T14:08:59.319Z,44.33
2022-12-19T14:13:45.125Z,46.53
2022-12-19T14:14:49.313Z,40.13
2022-12-19T14:17:36.011Z,39.45
2022-12-19T14:20:37.225Z,43.88
2022-12-19T14:22:49.563Z,42.22
2022-12-19T14:28:20.206Z,38.10
2022-12-19T14:28:21.750Z,38.80
2022-12-19T14:31:04.555Z,43.72
2022-12-19T14:33:44.256Z,48.75
2022-12-19T14:36:21.366Z,41.03
2022-12-19T14:39:25.059Z,44.63
2022-12-19T14:42:02.616Z,43.95
2022-12-19T14:52:02.646Z,50.72
2022-12-19T14:54:11.823Z,44.30
2022-12-19T14:54:22.084Z,48.88
2022-12-19T14:54:40.195Z,41.25
2022-12-19T14:59:02.049Z,42.85
2022-12-19T15:01:33.853Z,45.85
2022-12-19T15:04:53.510Z,42.75
2022-12-19T15:07:11.830Z,46.42
2022-12-19T15:11:02.798Z,42.75
2022-12-19T15:14:53.853Z,45.55
2022-12-19T15:15:50.877Z,42.50
2022-12-19T15:18:24.705Z,43.97
2022-12-19T15:20:52.318Z,47.55
2022-12-19T15:23:22.329Z,51.35
2022-12-19T15:26:06.953Z,47.85
2022-12-19T15:28:49.957Z,43.83
2022-12-19T15:31:24.601Z,46.40
2022-12-19T15:36:38.311Z,41.60
2022-12-19T15:39:05.558Z,51.75
2022-12-19T15:41:32.565Z,47.35
2022-12-19T15:44:04.533Z,48.50
2022-12-19T15:46:31.956Z,50.75
2022-12-19T15:48:58.865Z,44.83
2022-12-19T15:51:25.692Z,47.25
2022-12-19T15:53:52.473Z,47.08
2022-12-19T15:56:29.738Z,52.25
2022-12-19T15:58:57.464Z,48.65
2022-12-19T16:01:24.413Z,52.42
2022-12-19T16:03:51.568Z,55.38
2022-12-19T16:06:18.703Z,48.72
2022-12-19T16:08:45.660Z,46.80
2022-12-19T16:11:30.226Z,48.70
2022-12-19T16:13:57.403Z,50.05
2022-12-19T16:16:25.385Z,47.63
2022-12-19T16:18:52.278Z,47.92
2022-12-19T16:21:31.495Z,50.42
2022-12-19T16:24:00.582Z,50.13
2022-12-19T16:26:33.164Z,50.28
2022-12-19T16:29:00.114Z,50.05
2022-12-19T16:31:27.358Z,48.40
2022-12-19T16:33:54.377Z,47.58
2022-12-19T16:36:21.345Z,53.22
2022-12-19T16:38:48.285Z,48.85
2022-12-19T16:41:17.894Z,51.55
2022-12-19T16:43:44.797Z,57.63
2022-12-19T16:46:18.413Z,50.47
2022-12-19T16:48:45.371Z,52.38
2022-12-19T16:51:22.274Z,50.88
2022-12-19T16:53:50.801Z,47.00
2022-12-19T16:56:40.701Z,53.38
2022-12-19T16:59:29.225Z,52.40
2022-12-19T17:01:56.211Z,50.33
2022-12-19T17:04:24.772Z,53.15
2022-12-19T17:06:52.256Z,45.70
2022-12-19T17:09:23.437Z,56.88
2022-12-19T17:11:56.235Z,55.05
2022-12-19T17:14:27.904Z,49.58
2022-12-19T17:16:55.475Z,51.38
2022-12-19T17:19:26.724Z,48.90
2022-12-19T17:21:53.524Z,51.63
2022-12-19T17:24:20.327Z,48.47
2022-12-19T17:26:47.317Z,51.58
2022-12-19T17:29:14.189Z,47.53
2022-12-19T17:31:41.285Z,53.65
2022-12-19T17:34:28.538Z,51.60
2022-12-19T17:36:55.343Z,50.55
2022-12-19T17:39:24.083Z,52.28
2022-12-19T17:41:51.111Z,58.83
2022-12-19T17:44:18.039Z,48.83
2022-12-19T17:46:45.402Z,53.80
2022-12-19T17:49:30.611Z,51.30
2022-12-19T17:51:57.654Z,54.70
2022-12-19T17:54:25.380Z,55.08
2022-12-19T17:56:52.424Z,57.80
2022-12-19T17:59:20.148Z,49.38
2022-12-19T18:01:47.619Z,53.90
2022-12-19T18:04:16.431Z,54.75
2022-12-19T18:06:43.346Z,47.22
2022-12-19T18:09:20.254Z,55.67
2022-12-19T18:11:47.970Z,56.28
2022-12-19T18:14:14.994Z,52.15
2022-12-19T18:16:41.941Z,56.92
2022-12-19T18:19:19.702Z,53.60
2022-12-19T18:21:46.634Z,53.60
2022-12-19T18:24:14.835Z,57.58
2022-12-19T18:26:42.251Z,56.88
2022-12-19T18:29:09.061Z,54.67
2022-12-19T18:31:39.937Z,56.88
2022-12-19T18:34:24.170Z,60.95
2022-12-19T18:36:51.436Z,59.38
2022-12-19T18:39:26.026Z,55.25
2022-12-19T18:41:53.021Z,59.40
2022-12-19T18:44:20.066Z,56.40
2022-12-19T18:46:48.833Z,65.15
2022-12-19T18:49:16.924Z,55.55
2022-12-19T18:51:44.919Z,52.92
2022-12-19T18:54:19.433Z,62.08
2022-12-19T18:56:46.352Z,57.15
2022-12-19T18:59:13.345Z,55.80
2022-12-19T19:01:42.718Z,58.63
2022-12-19T19:04:12.252Z,58.22
2022-12-19T19:06:42.166Z,51.72
2022-12-19T19:09:16.344Z,54.53
2022-12-19T19:11:43.142Z,62.92
2022-12-19T19:14:10.042Z,61.63
2022-12-19T19:16:37.158Z,65.68
2022-12-19T19:19:04.813Z,61.30
2022-12-19T19:21:33.300Z,56.88
2022-12-19T19:24:08.841Z,55.20
2022-12-19T19:26:35.666Z,54.50
2022-12-19T19:29:03.109Z,57.03
2022-12-19T19:31:30.691Z,57.55
2022-12-19T19:34:03.930Z,55.50
2022-12-19T19:36:31.484Z,58.75
2022-12-19T19:38:58.350Z,57.50
2022-12-19T19:41:29.827Z,59.50
2022-12-19T19:43:57.575Z,58.35
2022-12-19T19:46:24.479Z,58.08
2022-12-19T19:48:51.523Z,59.28
2022-12-19T19:51:18.366Z,59.63
2022-12-19T19:53:45.201Z,61.30
2022-12-19T19:56:11.973Z,64.35
2022-12-19T19:58:38.804Z,61.85
2022-12-19T20:01:12.979Z,65.72
2022-12-19T20:03:40.493Z,63.17
2022-12-19T20:06:07.787Z,60.70
2022-12-19T20:08:39.549Z,58.95
2022-12-19T20:11:07.283Z,61.15
2022-12-19T20:13:34.232Z,56.42
2022-12-19T20:16:06.644Z,62.60
2022-12-19T20:18:33.867Z,60.80
2022-12-19T20:21:00.719Z,59.20
2022-12-19T20:23:27.592Z,63.63
2022-12-19T20:25:54.353Z,61.53
2022-12-19T20:28:21.222Z,68.95
2022-12-19T20:30:48.040Z,63.75
2022-12-19T20:33:14.892Z,61.80
2022-12-19T20:35:42.673Z,62.97
2022-12-19T20:38:09.503Z,64.38
2022-12-19T20:40:36.273Z,65.90
2022-12-19T20:43:03.078Z,60.53
2022-12-19T20:45:29.902Z,60.75
2022-12-19T20:47:56.902Z,63.75
2022-12-19T20:50:23.781Z,64.35
2022-12-19T20:52:50.757Z,66.00
2022-12-19T20:55:17.605Z,58.67
2022-12-19T20:57:44.511Z,61.88
2022-12-19T21:00:13.118Z,56.28
2022-12-19T21:03:24.894Z,61.33
2022-12-19T21:05:26.759Z,58.15
2022-12-19T21:07:53.581Z,57.35
2022-12-19T21:10:20.804Z,64.78
2022-12-19T21:12:48.219Z,65.97
2022-12-19T21:15:15.658Z,63.63
2022-12-19T21:17:42.471Z,64.68
2022-12-19T21:20:09.862Z,58.35
2022-12-19T21:22:36.754Z,56.95
2022-12-19T21:25:04.411Z,64.15
2022-12-19T21:27:31.187Z,59.88
2022-12-19T21:29:58.103Z,60.90
2022-12-19T21:32:25.112Z,64.32
2022-12-19T21:34:54.997Z,62.08
2022-12-19T21:37:24.308Z,62.55
2022-12-19T21:39:51.169Z,61.05
2022-12-19T21:42:17.993Z,60.83
2022-12-19T21:44:44.814Z,53.45
2022-12-19T21:47:11.731Z,59.63
2022-12-19T21:49:38.604Z,55.13
2022-12-19T21:52:05.554Z,57.60
2022-12-19T21:54:32.411Z,53.80
2022-12-19T21:56:59.253Z,59.40
2022-12-19T21:59:26.225Z,53.35
2022-12-19T22:01:53.176Z,58.70
2022-12-19T22:04:22.352Z,56.55
2022-12-19T22:06:50.226Z,66.80
2022-12-19T22:09:19.493Z,57.35
2022-12-19T22:11:46.462Z,51.40
2022-12-19T22:14:13.685Z,57.05
2022-12-19T22:16:40.482Z,55.28
2022-12-19T22:19:07.389Z,51.85
2022-12-19T22:21:34.217Z,52.38
2022-12-19T22:24:01.815Z,53.22
2022-12-19T22:26:31.856Z,54.75
2022-12-19T22:28:59.017Z,52.72
2022-12-19T22:31:27.626Z,50.88
2022-12-19T22:33:56.155Z,49.00
2022-12-19T22:36:28.074Z,47.97
2022-12-19T22:38:55.838Z,50.47
2022-12-19T22:41:22.876Z,47.08
2022-12-19T22:43:49.752Z,50.08
2022-12-19T22:46:26.602Z,44.53
2022-12-19T22:48:53.788Z,46.42
2022-12-19T22:51:20.868Z,44.53
2022-12-19T22:53:47.858Z,42.33
2022-12-19T22:56:16.722Z,39.70
2022-12-19T22:58:45.404Z,37.72
2022-12-19T23:01:24.211Z,37.78
2022-12-19T23:03:52.493Z,35.77
2022-12-19T23:06:19.842Z,39.83
2022-12-19T23:08:49.872Z,37.17
2022-12-19T23:11:21.453Z,36.25
2022-12-19T23:13:48.802Z,38.47
2022-12-19T23:16:16.295Z,38.92
2022-12-19T23:18:43.264Z,35.70
2022-12-19T23:21:15.128Z,34.42
2022-12-19T23:23:45.745Z,35.42
2022-12-19T23:26:24.986Z,35.00
2022-12-19T23:28:57.119Z,30.70
2022-12-19T23:31:24.233Z,31.60
2022-12-19T23:33:51.525Z,29.67
2022-12-19T23:36:38.039Z,32.72
2022-12-19T23:39:05.564Z,30.35
2022-12-19T23:41:32.578Z,28.50
2022-12-19T23:43:59.760Z,30.00
2022-12-19T23:46:27.000Z,32.15
2022-12-19T23:48:54.209Z,25.73
2022-12-19T23:51:22.901Z,29.00
2022-12-19T23:53:49.989Z,26.02
2022-12-19T23:56:23.011Z,25.63
2022-12-19T23:58:54.847Z,26.48
